sensor_id;sensor_type;location;lat;lon;timestamp;temperature;humidity
20670;DHT22;10494;50.868;4.180;2022-10-22T00:02:21;15.10;99.90
20670;DHT22;10494;50.868;4.180;2022-10-22T00:04:47;15.10;99.90
20670;DHT22;10494;50.868;4.180;2022-10-22T00:07:14;15.00;99.90
20670;DHT22;10494;50.868;4.180;2022-10-22T00:09:40;14.90;99.90
20670;DHT22;10494;50.868;4.180;2022-10-22T00:12:05;15.00;99.90
20670;DHT22;10494;50.868;4.180;2022-10-22T00:14:31;14.90;99.90
20670;DHT22;10494;50.868;4.180;2022-10-22T00:16:57;14.90;99.90
20670;DHT22;10494;50.868;4.180;2022-10-22T00:19:25;14.90;99.90
20670;DHT22;10494;50.868;4.180;2022-10-22T00:21:51;14.90;99.90
20670;DHT22;10494;50.868;4.180;2022-10-22T00:24:17;14.90;99.90
20670;DHT22;10494;50.868;4.180;2022-10-22T00:26:42;14.90;99.90
20670;DHT22;10494;50.868;4.180;2022-10-22T00:29:08;14.90;99.90
20670;DHT22;10494;50.868;4.180;2022-10-22T00:31:34;14.90;99.90
20670;DHT22;10494;50.868;4.180;2022-10-22T00:33:59;14.90;99.90
20670;DHT22;10494;50.868;4.180;2022-10-22T00:36:25;15.00;99.90
20670;DHT22;10494;50.868;4.180;2022-10-22T00:38:51;15.00;99.90
20670;DHT22;10494;50.868;4.180;2022-10-22T00:41:17;15.10;99.90
20670;DHT22;10494;50.868;4.180;2022-10-22T00:43:53;15.10;99.90
20670;DHT22;10494;50.868;4.180;2022-10-22T00:46:19;15.20;99.90
20670;DHT22;10494;50.868;4.180;2022-10-22T00:48:45;15.10;99.90
20670;DHT22;10494;50.868;4.180;2022-10-22T00:51:10;15.20;99.90
20670;DHT22;10494;50.868;4.180;2022-10-22T00:53:49;15.10;99.90
20670;DHT22;10494;50.868;4.180;2022-10-22T00:56:19;15.10;99.90
20670;DHT22;10494;50.868;4.180;2022-10-22T00:58:49;15.10;99.90
20670;DHT22;10494;50.868;4.180;2022-10-22T01:01:19;15.10;99.90
20670;DHT22;10494;50.868;4.180;2022-10-22T01:03:46;15.10;99.90
20670;DHT22;10494;50.868;4.180;2022-10-22T01:06:20;15.20;99.90
20670;DHT22;10494;50.868;4.180;2022-10-22T01:09:20;15.20;99.90
20670;DHT22;10494;50.868;4.180;2022-10-22T01:23:48;15.20;99.90
20670;DHT22;10494;50.868;4.180;2022-10-22T01:29:05;15.10;99.90
20670;DHT22;10494;50.868;4.180;2022-10-22T01:31:35;15.10;99.90
20670;DHT22;10494;50.868;4.180;2022-10-22T01:34:03;15.10;99.90
20670;DHT22;10494;50.868;4.180;2022-10-22T01:36:32;15.10;99.90
20670;DHT22;10494;50.868;4.180;2022-10-22T01:39:00;15.10;99.90
20670;DHT22;10494;50.868;4.180;2022-10-22T01:41:27;15.00;99.90
20670;DHT22;10494;50.868;4.180;2022-10-22T01:43:53;15.00;99.90
20670;DHT22;10494;50.868;4.180;2022-10-22T01:46:21;15.00;99.90
20670;DHT22;10494;50.868;4.180;2022-10-22T01:48:57;15.00;99.90
20670;DHT22;10494;50.868;4.180;2022-10-22T01:54:35;15.10;99.90
20670;DHT22;10494;50.868;4.180;2022-10-22T01:59:39;15.10;99.90
20670;DHT22;10494;50.868;4.180;2022-10-22T02:02:37;15.10;99.90
20670;DHT22;10494;50.868;4.180;2022-10-22T02:05:12;15.10;99.90
20670;DHT22;10494;50.868;4.180;2022-10-22T02:07:45;15.10;99.90
20670;DHT22;10494;50.868;4.180;2022-10-22T02:10:13;15.00;99.90
20670;DHT22;10494;50.868;4.180;2022-10-22T02:12:42;15.00;99.90
20670;DHT22;10494;50.868;4.180;2022-10-22T02:15:09;15.00;99.90
20670;DHT22;10494;50.868;4.180;2022-10-22T02:17:36;15.00;99.90
20670;DHT22;10494;50.868;4.180;2022-10-22T02:20:09;15.00;99.90
20670;DHT22;10494;50.868;4.180;2022-10-22T02:22:37;14.90;99.90
20670;DHT22;10494;50.868;4.180;2022-10-22T02:25:04;15.00;99.90
20670;DHT22;10494;50.868;4.180;2022-10-22T02:27:45;14.90;99.90
20670;DHT22;10494;50.868;4.180;2022-10-22T02:30:16;14.90;99.90
20670;DHT22;10494;50.868;4.180;2022-10-22T02:32:53;14.90;99.90
20670;DHT22;10494;50.868;4.180;2022-10-22T02:35:22;14.90;99.90
20670;DHT22;10494;50.868;4.180;2022-10-22T02:37:50;14.90;99.90
20670;DHT22;10494;50.868;4.180;2022-10-22T02:40:17;14.90;99.90
20670;DHT22;10494;50.868;4.180;2022-10-22T02:42:45;14.90;99.90
20670;DHT22;10494;50.868;4.180;2022-10-22T02:45:11;14.90;99.90
20670;DHT22;10494;50.868;4.180;2022-10-22T02:47:37;15.00;99.90
20670;DHT22;10494;50.868;4.180;2022-10-22T02:50:03;14.90;99.90
20670;DHT22;10494;50.868;4.180;2022-10-22T02:52:28;14.90;99.90
20670;DHT22;10494;50.868;4.180;2022-10-22T02:54:54;14.90;99.90
20670;DHT22;10494;50.868;4.180;2022-10-22T02:57:20;14.90;99.90
20670;DHT22;10494;50.868;4.180;2022-10-22T02:59:45;14.80;99.90
20670;DHT22;10494;50.868;4.180;2022-10-22T03:02:11;14.80;99.90
20670;DHT22;10494;50.868;4.180;2022-10-22T03:04:36;14.80;99.90
20670;DHT22;10494;50.868;4.180;2022-10-22T03:07:02;14.70;99.90
20670;DHT22;10494;50.868;4.180;2022-10-22T03:09:27;14.70;99.90
20670;DHT22;10494;50.868;4.180;2022-10-22T03:11:53;14.70;99.90
20670;DHT22;10494;50.868;4.180;2022-10-22T03:14:19;14.80;99.90
20670;DHT22;10494;50.868;4.180;2022-10-22T03:16:45;14.70;99.90
20670;DHT22;10494;50.868;4.180;2022-10-22T03:19:10;14.70;99.90
20670;DHT22;10494;50.868;4.180;2022-10-22T03:21:51;14.70;99.90
20670;DHT22;10494;50.868;4.180;2022-10-22T03:24:42;14.70;99.90
20670;DHT22;10494;50.868;4.180;2022-10-22T03:27:06;14.60;99.90
20670;DHT22;10494;50.868;4.180;2022-10-22T03:29:35;14.70;99.90
20670;DHT22;10494;50.868;4.180;2022-10-22T03:32:01;14.80;99.90
20670;DHT22;10494;50.868;4.180;2022-10-22T03:34:27;14.80;99.90
20670;DHT22;10494;50.868;4.180;2022-10-22T03:36:53;14.90;99.90
20670;DHT22;10494;50.868;4.180;2022-10-22T03:39:21;14.80;99.90
20670;DHT22;10494;50.868;4.180;2022-10-22T03:41:48;14.90;99.90
20670;DHT22;10494;50.868;4.180;2022-10-22T03:44:15;14.80;99.90
20670;DHT22;10494;50.868;4.180;2022-10-22T03:46:41;14.90;99.90
20670;DHT22;10494;50.868;4.180;2022-10-22T03:49:07;14.80;99.90
20670;DHT22;10494;50.868;4.180;2022-10-22T03:51:32;14.80;99.90
20670;DHT22;10494;50.868;4.180;2022-10-22T03:53:58;14.80;99.90
20670;DHT22;10494;50.868;4.180;2022-10-22T03:56:24;14.80;99.90
20670;DHT22;10494;50.868;4.180;2022-10-22T03:58:50;14.80;99.90
20670;DHT22;10494;50.868;4.180;2022-10-22T04:01:16;14.90;99.90
20670;DHT22;10494;50.868;4.180;2022-10-22T04:03:41;14.90;99.90
20670;DHT22;10494;50.868;4.180;2022-10-22T04:06:09;15.00;99.90
20670;DHT22;10494;50.868;4.180;2022-10-22T04:08:35;15.00;99.90
20670;DHT22;10494;50.868;4.180;2022-10-22T04:11:02;15.00;99.90
20670;DHT22;10494;50.868;4.180;2022-10-22T04:13:28;15.00;99.90
20670;DHT22;10494;50.868;4.180;2022-10-22T04:15:53;15.00;99.90
20670;DHT22;10494;50.868;4.180;2022-10-22T04:18:20;14.90;99.90
20670;DHT22;10494;50.868;4.180;2022-10-22T04:20:47;15.00;99.90
20670;DHT22;10494;50.868;4.180;2022-10-22T04:23:12;14.90;99.90
20670;DHT22;10494;50.868;4.180;2022-10-22T04:25:38;14.90;99.90
20670;DHT22;10494;50.868;4.180;2022-10-22T04:28:08;14.90;99.90
20670;DHT22;10494;50.868;4.180;2022-10-22T04:30:35;14.90;99.90
20670;DHT22;10494;50.868;4.180;2022-10-22T04:33:01;14.90;99.90
20670;DHT22;10494;50.868;4.180;2022-10-22T04:35:27;14.90;99.90
20670;DHT22;10494;50.868;4.180;2022-10-22T04:37:53;14.80;99.90
20670;DHT22;10494;50.868;4.180;2022-10-22T04:40:19;14.80;99.90
20670;DHT22;10494;50.868;4.180;2022-10-22T04:42:44;14.70;99.90
20670;DHT22;10494;50.868;4.180;2022-10-22T04:45:10;14.70;99.90
20670;DHT22;10494;50.868;4.180;2022-10-22T04:47:35;14.70;99.90
20670;DHT22;10494;50.868;4.180;2022-10-22T04:50:01;14.80;99.90
20670;DHT22;10494;50.868;4.180;2022-10-22T04:52:27;14.80;99.90
20670;DHT22;10494;50.868;4.180;2022-10-22T04:54:52;14.80;99.90
20670;DHT22;10494;50.868;4.180;2022-10-22T04:57:18;14.80;99.90
20670;DHT22;10494;50.868;4.180;2022-10-22T04:59:43;14.80;99.90
20670;DHT22;10494;50.868;4.180;2022-10-22T05:02:09;14.90;99.90
20670;DHT22;10494;50.868;4.180;2022-10-22T05:04:34;14.90;99.90
20670;DHT22;10494;50.868;4.180;2022-10-22T05:07:00;14.90;99.90
20670;DHT22;10494;50.868;4.180;2022-10-22T05:09:25;14.90;99.90
20670;DHT22;10494;50.868;4.180;2022-10-22T05:11:52;15.00;99.90
20670;DHT22;10494;50.868;4.180;2022-10-22T05:14:26;15.10;99.90
20670;DHT22;10494;50.868;4.180;2022-10-22T05:16:52;15.20;99.90
20670;DHT22;10494;50.868;4.180;2022-10-22T05:19:24;15.30;99.90
20670;DHT22;10494;50.868;4.180;2022-10-22T05:21:54;15.30;99.90
20670;DHT22;10494;50.868;4.180;2022-10-22T05:24:20;15.30;99.90
20670;DHT22;10494;50.868;4.180;2022-10-22T05:26:50;15.40;99.90
20670;DHT22;10494;50.868;4.180;2022-10-22T05:29:17;15.50;99.90
20670;DHT22;10494;50.868;4.180;2022-10-22T05:31:42;15.50;99.90
20670;DHT22;10494;50.868;4.180;2022-10-22T05:34:08;15.60;99.90
20670;DHT22;10494;50.868;4.180;2022-10-22T05:36:33;15.60;99.90
20670;DHT22;10494;50.868;4.180;2022-10-22T05:38:59;15.60;99.90
20670;DHT22;10494;50.868;4.180;2022-10-22T05:41:26;15.50;99.90
20670;DHT22;10494;50.868;4.180;2022-10-22T05:43:57;15.50;99.90
20670;DHT22;10494;50.868;4.180;2022-10-22T05:46:25;15.40;99.90
20670;DHT22;10494;50.868;4.180;2022-10-22T05:48:56;15.40;99.90
20670;DHT22;10494;50.868;4.180;2022-10-22T05:51:23;15.40;99.90
20670;DHT22;10494;50.868;4.180;2022-10-22T05:53:54;15.40;99.90
20670;DHT22;10494;50.868;4.180;2022-10-22T05:56:21;15.50;99.90
20670;DHT22;10494;50.868;4.180;2022-10-22T05:58:47;15.40;99.90
20670;DHT22;10494;50.868;4.180;2022-10-22T06:01:24;15.40;99.90
20670;DHT22;10494;50.868;4.180;2022-10-22T06:03:53;15.40;99.90
20670;DHT22;10494;50.868;4.180;2022-10-22T06:06:25;15.40;99.90
20670;DHT22;10494;50.868;4.180;2022-10-22T06:08:52;15.40;99.90
20670;DHT22;10494;50.868;4.180;2022-10-22T06:11:20;15.50;99.90
20670;DHT22;10494;50.868;4.180;2022-10-22T06:13:47;15.50;99.90
20670;DHT22;10494;50.868;4.180;2022-10-22T06:16:13;15.50;99.90
20670;DHT22;10494;50.868;4.180;2022-10-22T06:18:38;15.60;99.90
20670;DHT22;10494;50.868;4.180;2022-10-22T06:21:09;15.60;99.90
20670;DHT22;10494;50.868;4.180;2022-10-22T06:23:36;15.60;99.90
20670;DHT22;10494;50.868;4.180;2022-10-22T06:26:03;15.70;99.90
20670;DHT22;10494;50.868;4.180;2022-10-22T06:28:29;15.70;99.90
20670;DHT22;10494;50.868;4.180;2022-10-22T06:30:57;15.70;99.90
20670;DHT22;10494;50.868;4.180;2022-10-22T06:33:23;15.70;99.90
20670;DHT22;10494;50.868;4.180;2022-10-22T06:35:49;15.70;99.90
20670;DHT22;10494;50.868;4.180;2022-10-22T06:38:15;15.70;99.90
20670;DHT22;10494;50.868;4.180;2022-10-22T06:40:40;15.70;99.90
20670;DHT22;10494;50.868;4.180;2022-10-22T06:43:09;15.70;99.90
20670;DHT22;10494;50.868;4.180;2022-10-22T06:45:34;15.70;99.90
20670;DHT22;10494;50.868;4.180;2022-10-22T06:48:00;15.70;99.90
20670;DHT22;10494;50.868;4.180;2022-10-22T06:50:26;15.70;99.90
20670;DHT22;10494;50.868;4.180;2022-10-22T06:52:51;15.70;99.90
20670;DHT22;10494;50.868;4.180;2022-10-22T06:55:17;15.70;99.90
20670;DHT22;10494;50.868;4.180;2022-10-22T06:57:42;15.70;99.90
20670;DHT22;10494;50.868;4.180;2022-10-22T07:00:09;15.70;99.90
20670;DHT22;10494;50.868;4.180;2022-10-22T07:02:35;15.80;99.90
20670;DHT22;10494;50.868;4.180;2022-10-22T07:05:00;15.90;99.90
20670;DHT22;10494;50.868;4.180;2022-10-22T07:07:26;16.00;99.90
20670;DHT22;10494;50.868;4.180;2022-10-22T07:09:51;15.90;99.90
20670;DHT22;10494;50.868;4.180;2022-10-22T07:12:17;16.00;99.90
20670;DHT22;10494;50.868;4.180;2022-10-22T07:14:43;16.00;99.90
20670;DHT22;10494;50.868;4.180;2022-10-22T07:17:08;15.90;99.90
20670;DHT22;10494;50.868;4.180;2022-10-22T07:19:34;16.00;99.90
20670;DHT22;10494;50.868;4.180;2022-10-22T07:22:00;16.00;99.90
20670;DHT22;10494;50.868;4.180;2022-10-22T07:24:26;16.00;99.90
20670;DHT22;10494;50.868;4.180;2022-10-22T07:26:51;16.00;99.90
20670;DHT22;10494;50.868;4.180;2022-10-22T07:29:17;16.00;99.90
20670;DHT22;10494;50.868;4.180;2022-10-22T07:31:43;16.00;99.90
20670;DHT22;10494;50.868;4.180;2022-10-22T07:34:08;16.10;99.90
20670;DHT22;10494;50.868;4.180;2022-10-22T07:36:34;16.10;99.90
20670;DHT22;10494;50.868;4.180;2022-10-22T07:39:00;16.20;99.90
20670;DHT22;10494;50.868;4.180;2022-10-22T07:41:27;16.20;99.90
20670;DHT22;10494;50.868;4.180;2022-10-22T07:43:54;16.30;99.90
20670;DHT22;10494;50.868;4.180;2022-10-22T07:46:20;16.40;99.90
20670;DHT22;10494;50.868;4.180;2022-10-22T07:48:45;16.60;99.90
20670;DHT22;10494;50.868;4.180;2022-10-22T07:51:11;16.80;99.90
20670;DHT22;10494;50.868;4.180;2022-10-22T07:53:37;16.90;99.90
20670;DHT22;10494;50.868;4.180;2022-10-22T07:56:03;17.10;99.90
20670;DHT22;10494;50.868;4.180;2022-10-22T07:58:29;17.40;99.90
20670;DHT22;10494;50.868;4.180;2022-10-22T08:00:56;17.50;99.90
20670;DHT22;10494;50.868;4.180;2022-10-22T08:03:22;17.60;99.90
20670;DHT22;10494;50.868;4.180;2022-10-22T08:05:48;17.50;99.90
20670;DHT22;10494;50.868;4.180;2022-10-22T08:08:14;17.40;99.90
20670;DHT22;10494;50.868;4.180;2022-10-22T08:10:40;17.10;99.90
20670;DHT22;10494;50.868;4.180;2022-10-22T08:13:07;17.00;99.90
20670;DHT22;10494;50.868;4.180;2022-10-22T08:15:33;16.90;99.90
20670;DHT22;10494;50.868;4.180;2022-10-22T08:17:58;16.90;99.90
20670;DHT22;10494;50.868;4.180;2022-10-22T08:20:24;16.80;99.90
20670;DHT22;10494;50.868;4.180;2022-10-22T08:22:50;16.80;99.90
20670;DHT22;10494;50.868;4.180;2022-10-22T08:25:15;16.70;99.90
20670;DHT22;10494;50.868;4.180;2022-10-22T08:27:42;16.60;99.90
20670;DHT22;10494;50.868;4.180;2022-10-22T08:30:09;16.70;99.90
20670;DHT22;10494;50.868;4.180;2022-10-22T08:32:34;16.90;99.90
20670;DHT22;10494;50.868;4.180;2022-10-22T08:35:00;17.60;99.90
20670;DHT22;10494;50.868;4.180;2022-10-22T08:37:26;18.20;99.90
20670;DHT22;10494;50.868;4.180;2022-10-22T08:39:51;18.70;99.90
20670;DHT22;10494;50.868;4.180;2022-10-22T08:42:37;19.50;99.90
20670;DHT22;10494;50.868;4.180;2022-10-22T08:50:51;20.00;99.90
20670;DHT22;10494;50.868;4.180;2022-10-22T08:53:37;19.50;99.90
20670;DHT22;10494;50.868;4.180;2022-10-22T08:56:04;19.30;99.90
20670;DHT22;10494;50.868;4.180;2022-10-22T09:01:09;18.80;99.90
20670;DHT22;10494;50.868;4.180;2022-10-22T09:03:50;18.80;99.90
20670;DHT22;10494;50.868;4.180;2022-10-22T09:06:27;19.50;99.90
20670;DHT22;10494;50.868;4.180;2022-10-22T09:08:53;19.70;99.90
20670;DHT22;10494;50.868;4.180;2022-10-22T09:13:54;20.70;99.90
20670;DHT22;10494;50.868;4.180;2022-10-22T09:16:29;20.60;99.90
20670;DHT22;10494;50.868;4.180;2022-10-22T09:24:12;21.50;99.90
20670;DHT22;10494;50.868;4.180;2022-10-22T09:26:41;21.70;99.90
20670;DHT22;10494;50.868;4.180;2022-10-22T09:29:15;21.90;99.90
20670;DHT22;10494;50.868;4.180;2022-10-22T09:31:41;21.40;99.90
20670;DHT22;10494;50.868;4.180;2022-10-22T09:34:07;21.40;99.90
20670;DHT22;10494;50.868;4.180;2022-10-22T09:36:33;20.90;99.90
20670;DHT22;10494;50.868;4.180;2022-10-22T09:38:59;20.60;99.90
20670;DHT22;10494;50.868;4.180;2022-10-22T09:41:27;20.50;99.90
20670;DHT22;10494;50.868;4.180;2022-10-22T09:43:57;20.60;99.90
20670;DHT22;10494;50.868;4.180;2022-10-22T09:46:27;20.20;99.90
20670;DHT22;10494;50.868;4.180;2022-10-22T09:49:00;20.20;99.90
20670;DHT22;10494;50.868;4.180;2022-10-22T09:51:50;20.10;99.90
20670;DHT22;10494;50.868;4.180;2022-10-22T09:54:25;20.00;99.90
20670;DHT22;10494;50.868;4.180;2022-10-22T09:56:56;20.40;99.90
20670;DHT22;10494;50.868;4.180;2022-10-22T09:59:30;20.50;99.90
20670;DHT22;10494;50.868;4.180;2022-10-22T10:04:33;20.80;99.90
20670;DHT22;10494;50.868;4.180;2022-10-22T10:06:59;20.80;99.90
20670;DHT22;10494;50.868;4.180;2022-10-22T10:09:25;20.90;99.90
20670;DHT22;10494;50.868;4.180;2022-10-22T10:12:08;21.40;99.90
20670;DHT22;10494;50.868;4.180;2022-10-22T10:17:32;21.90;99.90
20670;DHT22;10494;50.868;4.180;2022-10-22T10:26:08;22.50;99.90
20670;DHT22;10494;50.868;4.180;2022-10-22T10:28:47;23.20;99.90
20670;DHT22;10494;50.868;4.180;2022-10-22T10:39:38;22.80;99.90
20670;DHT22;10494;50.868;4.180;2022-10-22T10:58:24;21.80;99.90
20670;DHT22;10494;50.868;4.180;2022-10-22T11:00:57;21.60;99.90
20670;DHT22;10494;50.868;4.180;2022-10-22T11:05:58;21.50;99.90
20670;DHT22;10494;50.868;4.180;2022-10-22T11:08:39;21.10;99.90
20670;DHT22;10494;50.868;4.180;2022-10-22T11:11:10;20.80;99.90
20670;DHT22;10494;50.868;4.180;2022-10-22T11:16:34;20.60;99.90
20670;DHT22;10494;50.868;4.180;2022-10-22T11:19:26;20.60;99.90
20670;DHT22;10494;50.868;4.180;2022-10-22T11:22:05;20.40;99.90
20670;DHT22;10494;50.868;4.180;2022-10-22T11:24:36;20.60;99.90
20670;DHT22;10494;50.868;4.180;2022-10-22T11:27:07;20.40;99.90
20670;DHT22;10494;50.868;4.180;2022-10-22T11:29:38;20.30;99.90
20670;DHT22;10494;50.868;4.180;2022-10-22T11:32:19;20.40;99.90
20670;DHT22;10494;50.868;4.180;2022-10-22T11:35:05;20.50;99.90
20670;DHT22;10494;50.868;4.180;2022-10-22T11:37:34;20.60;99.90
20670;DHT22;10494;50.868;4.180;2022-10-22T11:40:06;20.50;99.90
20670;DHT22;10494;50.868;4.180;2022-10-22T11:42:39;20.60;99.90
20670;DHT22;10494;50.868;4.180;2022-10-22T11:47:52;21.10;99.90
20670;DHT22;10494;50.868;4.180;2022-10-22T11:50:26;21.70;99.90
20670;DHT22;10494;50.868;4.180;2022-10-22T12:08:44;21.00;99.90
20670;DHT22;10494;50.868;4.180;2022-10-22T12:11:13;20.80;99.90
20670;DHT22;10494;50.868;4.180;2022-10-22T12:14:13;20.60;99.90
20670;DHT22;10494;50.868;4.180;2022-10-22T12:16:45;20.70;99.90
20670;DHT22;10494;50.868;4.180;2022-10-22T12:19:26;21.00;99.90
20670;DHT22;10494;50.868;4.180;2022-10-22T12:21:59;21.30;99.90
20670;DHT22;10494;50.868;4.180;2022-10-22T12:24:30;21.10;99.90
20670;DHT22;10494;50.868;4.180;2022-10-22T12:26:57;21.10;99.90
20670;DHT22;10494;50.868;4.180;2022-10-22T12:29:23;21.00;99.90
20670;DHT22;10494;50.868;4.180;2022-10-22T12:31:50;21.10;99.90
20670;DHT22;10494;50.868;4.180;2022-10-22T12:34:25;21.30;99.90
20670;DHT22;10494;50.868;4.180;2022-10-22T12:36:52;21.30;99.90
20670;DHT22;10494;50.868;4.180;2022-10-22T12:39:21;21.30;99.90
20670;DHT22;10494;50.868;4.180;2022-10-22T12:41:47;21.20;99.90
20670;DHT22;10494;50.868;4.180;2022-10-22T12:44:15;21.20;99.90
20670;DHT22;10494;50.868;4.180;2022-10-22T12:46:42;21.00;99.90
20670;DHT22;10494;50.868;4.180;2022-10-22T12:49:20;20.90;99.90
20670;DHT22;10494;50.868;4.180;2022-10-22T12:51:47;20.80;99.90
20670;DHT22;10494;50.868;4.180;2022-10-22T12:54:26;20.90;99.90
20670;DHT22;10494;50.868;4.180;2022-10-22T12:56:54;20.90;99.90
20670;DHT22;10494;50.868;4.180;2022-10-22T12:59:33;21.00;99.90
20670;DHT22;10494;50.868;4.180;2022-10-22T13:02:00;20.90;99.90
20670;DHT22;10494;50.868;4.180;2022-10-22T13:04:35;20.80;99.90
20670;DHT22;10494;50.868;4.180;2022-10-22T13:09:38;20.90;99.90
20670;DHT22;10494;50.868;4.180;2022-10-22T13:12:05;20.90;99.90
20670;DHT22;10494;50.868;4.180;2022-10-22T13:14:34;20.90;99.90
20670;DHT22;10494;50.868;4.180;2022-10-22T13:17:13;20.90;99.90
20670;DHT22;10494;50.868;4.180;2022-10-22T13:19:46;20.90;99.90
20670;DHT22;10494;50.868;4.180;2022-10-22T13:25:25;20.70;99.90
20670;DHT22;10494;50.868;4.180;2022-10-22T13:30:22;21.00;99.90
20670;DHT22;10494;50.868;4.180;2022-10-22T13:32:53;20.90;99.90
20670;DHT22;10494;50.868;4.180;2022-10-22T13:35:24;20.80;99.90
20670;DHT22;10494;50.868;4.180;2022-10-22T13:37:50;20.80;99.90
20670;DHT22;10494;50.868;4.180;2022-10-22T13:40:16;20.80;99.90
20670;DHT22;10494;50.868;4.180;2022-10-22T13:42:42;20.70;99.90
20670;DHT22;10494;50.868;4.180;2022-10-22T13:45:07;20.60;99.90
20670;DHT22;10494;50.868;4.180;2022-10-22T13:47:33;20.70;99.90
20670;DHT22;10494;50.868;4.180;2022-10-22T13:50:02;20.80;99.90
20670;DHT22;10494;50.868;4.180;2022-10-22T13:54:53;20.90;99.90
20670;DHT22;10494;50.868;4.180;2022-10-22T13:57:19;21.10;99.90
20670;DHT22;10494;50.868;4.180;2022-10-22T13:59:44;21.20;99.90
20670;DHT22;10494;50.868;4.180;2022-10-22T14:02:13;21.10;99.90
20670;DHT22;10494;50.868;4.180;2022-10-22T14:04:41;21.10;99.90
20670;DHT22;10494;50.868;4.180;2022-10-22T14:07:14;21.10;99.90
20670;DHT22;10494;50.868;4.180;2022-10-22T14:09:41;21.00;99.90
20670;DHT22;10494;50.868;4.180;2022-10-22T14:12:15;20.90;99.90
20670;DHT22;10494;50.868;4.180;2022-10-22T14:14:41;20.90;99.90
20670;DHT22;10494;50.868;4.180;2022-10-22T14:17:12;21.00;99.90
20670;DHT22;10494;50.868;4.180;2022-10-22T14:19:46;21.10;99.90
20670;DHT22;10494;50.868;4.180;2022-10-22T14:22:17;21.10;99.90
20670;DHT22;10494;50.868;4.180;2022-10-22T14:24:45;21.10;99.90
20670;DHT22;10494;50.868;4.180;2022-10-22T14:27:12;21.10;99.90
20670;DHT22;10494;50.868;4.180;2022-10-22T14:29:39;21.00;99.90
20670;DHT22;10494;50.868;4.180;2022-10-22T14:32:11;21.10;99.90
20670;DHT22;10494;50.868;4.180;2022-10-22T14:34:37;20.90;99.90
20670;DHT22;10494;50.868;4.180;2022-10-22T14:37:02;20.90;99.90
20670;DHT22;10494;50.868;4.180;2022-10-22T14:39:28;20.90;99.90
20670;DHT22;10494;50.868;4.180;2022-10-22T14:41:53;20.90;99.90
20670;DHT22;10494;50.868;4.180;2022-10-22T14:44:19;20.90;99.90
20670;DHT22;10494;50.868;4.180;2022-10-22T14:46:44;21.00;99.90
20670;DHT22;10494;50.868;4.180;2022-10-22T14:49:11;21.20;99.90
20670;DHT22;10494;50.868;4.180;2022-10-22T14:51:37;21.00;99.90
20670;DHT22;10494;50.868;4.180;2022-10-22T14:54:03;20.90;99.90
20670;DHT22;10494;50.868;4.180;2022-10-22T14:56:28;20.80;99.90
20670;DHT22;10494;50.868;4.180;2022-10-22T14:58:54;20.70;99.90
20670;DHT22;10494;50.868;4.180;2022-10-22T15:01:20;20.50;99.90
20670;DHT22;10494;50.868;4.180;2022-10-22T15:03:45;20.40;99.90
20670;DHT22;10494;50.868;4.180;2022-10-22T15:06:11;20.20;99.90
20670;DHT22;10494;50.868;4.180;2022-10-22T15:08:36;20.20;99.90
20670;DHT22;10494;50.868;4.180;2022-10-22T15:11:04;20.20;99.90
20670;DHT22;10494;50.868;4.180;2022-10-22T15:13:30;20.20;99.90
20670;DHT22;10494;50.868;4.180;2022-10-22T15:15:56;20.30;99.90
20670;DHT22;10494;50.868;4.180;2022-10-22T15:18:22;20.30;99.90
20670;DHT22;10494;50.868;4.180;2022-10-22T15:20:58;20.30;99.90
20670;DHT22;10494;50.868;4.180;2022-10-22T15:23:25;20.30;99.90
20670;DHT22;10494;50.868;4.180;2022-10-22T15:25:50;20.30;99.90
20670;DHT22;10494;50.868;4.180;2022-10-22T15:28:16;20.30;99.90
20670;DHT22;10494;50.868;4.180;2022-10-22T15:30:42;20.30;99.90
20670;DHT22;10494;50.868;4.180;2022-10-22T15:33:07;20.30;99.90
20670;DHT22;10494;50.868;4.180;2022-10-22T15:35:33;20.30;99.90
20670;DHT22;10494;50.868;4.180;2022-10-22T15:37:58;20.30;99.90
20670;DHT22;10494;50.868;4.180;2022-10-22T15:40:24;20.30;99.90
20670;DHT22;10494;50.868;4.180;2022-10-22T15:42:49;20.40;99.90
20670;DHT22;10494;50.868;4.180;2022-10-22T15:45:15;20.40;99.90
20670;DHT22;10494;50.868;4.180;2022-10-22T15:47:44;20.30;99.90
20670;DHT22;10494;50.868;4.180;2022-10-22T15:50:10;20.20;99.90
20670;DHT22;10494;50.868;4.180;2022-10-22T15:52:36;20.10;99.90
20670;DHT22;10494;50.868;4.180;2022-10-22T15:55:02;20.00;99.90
20670;DHT22;10494;50.868;4.180;2022-10-22T15:57:37;19.90;99.90
20670;DHT22;10494;50.868;4.180;2022-10-22T16:00:04;19.80;99.90
20670;DHT22;10494;50.868;4.180;2022-10-22T16:02:30;19.70;99.90
20670;DHT22;10494;50.868;4.180;2022-10-22T16:04:56;19.60;99.90
20670;DHT22;10494;50.868;4.180;2022-10-22T16:07:23;19.60;99.90
20670;DHT22;10494;50.868;4.180;2022-10-22T16:09:49;19.50;99.90
20670;DHT22;10494;50.868;4.180;2022-10-22T16:12:14;19.40;99.90
20670;DHT22;10494;50.868;4.180;2022-10-22T16:14:40;19.40;99.90
20670;DHT22;10494;50.868;4.180;2022-10-22T16:17:05;19.30;99.90
20670;DHT22;10494;50.868;4.180;2022-10-22T16:19:31;19.30;99.90
20670;DHT22;10494;50.868;4.180;2022-10-22T16:21:57;19.10;99.90
20670;DHT22;10494;50.868;4.180;2022-10-22T16:24:25;19.00;99.90
20670;DHT22;10494;50.868;4.180;2022-10-22T16:26:51;19.00;99.90
20670;DHT22;10494;50.868;4.180;2022-10-22T16:29:17;18.90;99.90
20670;DHT22;10494;50.868;4.180;2022-10-22T16:31:43;18.90;99.90
20670;DHT22;10494;50.868;4.180;2022-10-22T16:34:10;18.80;99.90
20670;DHT22;10494;50.868;4.180;2022-10-22T16:36:36;18.70;99.90
20670;DHT22;10494;50.868;4.180;2022-10-22T16:39:03;18.60;99.90
20670;DHT22;10494;50.868;4.180;2022-10-22T16:41:29;18.60;99.90
20670;DHT22;10494;50.868;4.180;2022-10-22T16:44:00;18.50;99.90
20670;DHT22;10494;50.868;4.180;2022-10-22T16:46:28;18.20;99.90
20670;DHT22;10494;50.868;4.180;2022-10-22T16:48:54;18.10;99.90
20670;DHT22;10494;50.868;4.180;2022-10-22T16:51:21;18.00;99.90
20670;DHT22;10494;50.868;4.180;2022-10-22T16:53:49;17.90;99.90
20670;DHT22;10494;50.868;4.180;2022-10-22T16:56:16;17.90;99.90
20670;DHT22;10494;50.868;4.180;2022-10-22T16:58:47;17.80;99.90
20670;DHT22;10494;50.868;4.180;2022-10-22T17:01:13;17.70;99.90
20670;DHT22;10494;50.868;4.180;2022-10-22T17:03:39;17.60;99.90
20670;DHT22;10494;50.868;4.180;2022-10-22T17:06:05;17.50;99.90
20670;DHT22;10494;50.868;4.180;2022-10-22T17:08:33;17.30;99.90
20670;DHT22;10494;50.868;4.180;2022-10-22T17:11:14;17.10;99.90
20670;DHT22;10494;50.868;4.180;2022-10-22T17:13:46;17.00;99.90
20670;DHT22;10494;50.868;4.180;2022-10-22T17:16:14;16.90;99.90
20670;DHT22;10494;50.868;4.180;2022-10-22T17:18:41;16.90;99.90
20670;DHT22;10494;50.868;4.180;2022-10-22T17:21:09;16.80;99.90
20670;DHT22;10494;50.868;4.180;2022-10-22T17:23:35;16.70;99.90
20670;DHT22;10494;50.868;4.180;2022-10-22T17:26:21;16.50;99.90